createdAt,value
2022-08-27T00:02:01.025Z,1.85
2022-08-27T00:04:27.742Z,1.40
2022-08-27T00:06:54.306Z,1.33
2022-08-27T00:09:26.513Z,1.00
2022-08-27T00:11:53.580Z,1.40
2022-08-27T00:14:19.919Z,1.55
2022-08-27T00:16:46.479Z,2.05
2022-08-27T00:19:12.941Z,1.60
2022-08-27T00:21:39.346Z,1.60
2022-08-27T00:24:05.782Z,1.40
2022-08-27T00:26:32.208Z,1.60
2022-08-27T00:28:58.536Z,1.80
2022-08-27T00:31:27.387Z,1.80
2022-08-27T00:33:54.174Z,1.70
2022-08-27T00:36:20.532Z,2.95
2022-08-27T00:38:46.935Z,1.95
2022-08-27T00:41:13.975Z,2.20
2022-08-27T00:43:45.161Z,2.10
2022-08-27T00:46:16.576Z,2.10
2022-08-27T00:48:43.000Z,1.40
2022-08-27T00:51:09.376Z,2.45
2022-08-27T00:53:36.123Z,1.52
2022-08-27T00:56:04.809Z,1.60
2022-08-27T00:58:32.657Z,2.03
2022-08-27T01:00:59.878Z,1.55
2022-08-27T01:03:26.477Z,1.90
2022-08-27T01:05:53.394Z,2.58
2022-08-27T01:08:21.621Z,2.00
2022-08-27T01:10:48.910Z,1.63
2022-08-27T01:13:17.166Z,1.45
2022-08-27T01:15:43.963Z,1.38
2022-08-27T01:18:13.321Z,2.13
2022-08-27T01:20:51.472Z,2.58
2022-08-27T01:23:23.705Z,1.80
2022-08-27T01:25:50.099Z,2.30
2022-08-27T01:28:17.075Z,2.30
2022-08-27T01:30:50.065Z,2.10
2022-08-27T01:33:17.700Z,2.03
2022-08-27T01:35:44.950Z,2.13
2022-08-27T01:38:18.282Z,2.05
2022-08-27T01:40:57.149Z,3.13
2022-08-27T01:43:23.471Z,2.22
2022-08-27T01:45:51.000Z,2.45
2022-08-27T01:48:21.307Z,3.45
2022-08-27T01:50:48.291Z,2.75
2022-08-27T01:53:16.344Z,2.08
2022-08-27T01:55:47.678Z,1.83
2022-08-27T01:58:15.502Z,1.92
2022-08-27T02:00:43.167Z,2.90
2022-08-27T02:03:10.240Z,3.80
2022-08-27T02:05:44.678Z,3.00
2022-08-27T02:08:12.635Z,3.90
2022-08-27T02:10:39.703Z,5.30
2022-08-27T02:13:07.024Z,3.50
2022-08-27T02:15:34.402Z,2.22
2022-08-27T02:18:01.409Z,2.58
2022-08-27T02:20:27.992Z,2.75
2022-08-27T02:22:55.991Z,3.38
2022-08-27T02:25:22.468Z,2.33
2022-08-27T02:27:49.496Z,2.53
2022-08-27T02:30:17.451Z,1.50
2022-08-27T02:32:47.091Z,1.85
2022-08-27T02:35:14.495Z,2.10
2022-08-27T02:37:41.894Z,1.55
2022-08-27T02:40:09.269Z,1.30
2022-08-27T02:42:35.763Z,1.40
2022-08-27T02:45:02.277Z,1.45
2022-08-27T02:47:29.111Z,1.10
2022-08-27T02:49:55.644Z,1.58
2022-08-27T02:52:24.932Z,1.20
2022-08-27T02:54:51.613Z,1.90
2022-08-27T02:57:18.073Z,2.85
2022-08-27T02:59:45.243Z,2.10
2022-08-27T03:02:11.849Z,1.55
2022-08-27T03:04:38.293Z,1.98
2022-08-27T03:07:04.741Z,1.50
2022-08-27T03:09:31.092Z,1.20
2022-08-27T03:11:57.581Z,1.20
2022-08-27T03:14:23.935Z,1.67
2022-08-27T03:16:50.422Z,1.50
2022-08-27T03:19:23.656Z,1.55
2022-08-27T03:21:52.121Z,1.20
2022-08-27T03:24:21.268Z,1.08
2022-08-27T03:26:52.765Z,1.20
2022-08-27T03:31:46.783Z,1.40
2022-08-27T03:34:13.396Z,2.70
2022-08-27T03:36:39.740Z,2.30
2022-08-27T03:39:06.619Z,2.05
2022-08-27T03:41:45.370Z,1.40
2022-08-27T03:44:21.594Z,1.70
2022-08-27T03:46:48.718Z,1.60
2022-08-27T03:49:15.202Z,2.08
2022-08-27T03:51:44.068Z,1.92
2022-08-27T03:54:10.601Z,1.35
2022-08-27T03:56:39.418Z,1.08
2022-08-27T03:59:06.245Z,1.15
2022-08-27T04:01:32.722Z,0.90
2022-08-27T04:03:59.222Z,0.65
2022-08-27T04:06:25.665Z,1.02
2022-08-27T04:08:52.024Z,1.63
2022-08-27T04:11:18.862Z,1.98
2022-08-27T04:13:45.292Z,1.60
2022-08-27T04:16:11.671Z,0.90
2022-08-27T04:18:38.063Z,0.90
2022-08-27T04:21:09.222Z,0.52
2022-08-27T04:23:35.542Z,0.98
2022-08-27T04:26:05.159Z,1.60
2022-08-27T04:28:35.243Z,0.90
2022-08-27T04:31:05.098Z,1.17
2022-08-27T04:33:32.424Z,1.27
2022-08-27T04:35:59.998Z,1.20
2022-08-27T04:38:26.515Z,0.93
2022-08-27T04:41:11.796Z,1.80
2022-08-27T04:43:38.235Z,1.08
2022-08-27T04:46:04.654Z,2.67
2022-08-27T04:48:31.572Z,2.25
2022-08-27T04:50:57.904Z,1.30
2022-08-27T04:53:24.240Z,1.40
2022-08-27T04:55:52.466Z,0.80
2022-08-27T04:58:20.625Z,2.08
2022-08-27T05:00:48.597Z,1.40
2022-08-27T05:03:16.556Z,1.10
2022-08-27T05:05:43.859Z,0.70
2022-08-27T05:08:12.992Z,1.52
2022-08-27T05:10:43.652Z,1.33
2022-08-27T05:13:10.730Z,1.52
2022-08-27T05:15:37.579Z,2.30
2022-08-27T05:18:04.548Z,2.50
2022-08-27T05:20:31.482Z,2.13
2022-08-27T05:22:58.277Z,1.80
2022-08-27T05:25:25.618Z,1.20
2022-08-27T05:27:52.020Z,1.92
2022-08-27T05:30:18.428Z,1.20
2022-08-27T05:32:44.863Z,1.17
2022-08-27T05:35:15.222Z,1.30
2022-08-27T05:37:42.788Z,1.65
2022-08-27T05:40:09.594Z,1.52
2022-08-27T05:42:36.006Z,2.00
2022-08-27T05:45:02.364Z,1.40
2022-08-27T05:47:29.577Z,1.80
2022-08-27T05:49:56.043Z,0.82
2022-08-27T05:52:22.356Z,1.10
2022-08-27T05:54:48.808Z,0.90
2022-08-27T05:57:15.182Z,1.90
2022-08-27T06:00:00.330Z,1.85
2022-08-27T06:02:26.789Z,1.90
2022-08-27T06:04:53.763Z,1.13
2022-08-27T06:07:20.380Z,1.30
2022-08-27T06:09:46.701Z,1.65
2022-08-27T06:12:13.099Z,1.23
2022-08-27T06:14:39.499Z,1.00
2022-08-27T06:17:06.481Z,1.15
2022-08-27T06:19:34.700Z,1.45
2022-08-27T06:22:09.869Z,1.00
2022-08-27T06:24:39.235Z,1.15
2022-08-27T06:27:06.008Z,1.10
2022-08-27T06:29:34.115Z,1.77
2022-08-27T06:32:00.425Z,1.05
2022-08-27T06:34:26.797Z,1.73
2022-08-27T06:36:54.336Z,0.82
2022-08-27T06:39:20.876Z,1.00
2022-08-27T06:41:50.312Z,0.88
2022-08-27T06:44:16.712Z,1.15
2022-08-27T06:46:43.403Z,1.00
2022-08-27T06:49:11.181Z,1.00
2022-08-27T06:51:38.410Z,1.50
2022-08-27T06:54:06.424Z,1.58
2022-08-27T06:56:33.293Z,1.15
2022-08-27T06:59:01.639Z,1.75
2022-08-27T07:01:30.451Z,1.20
2022-08-27T07:03:58.519Z,1.20
2022-08-27T07:06:25.888Z,1.10
2022-08-27T07:08:53.694Z,1.20
2022-08-27T07:11:20.866Z,0.95
2022-08-27T07:13:48.196Z,0.80
2022-08-27T07:16:16.208Z,1.08
2022-08-27T07:18:43.009Z,0.70
2022-08-27T07:21:09.723Z,0.50
2022-08-27T07:23:36.864Z,1.20
2022-08-27T07:26:08.044Z,1.73
2022-08-27T07:28:34.360Z,1.02
2022-08-27T07:31:00.750Z,0.82
2022-08-27T07:33:27.261Z,0.65
2022-08-27T07:35:53.698Z,0.75
2022-08-27T07:38:20.035Z,1.50
2022-08-27T07:40:46.829Z,0.68
2022-08-27T07:43:32.055Z,0.80
2022-08-27T07:46:00.846Z,0.40
2022-08-27T07:48:27.938Z,0.57
2022-08-27T07:50:54.375Z,0.50
2022-08-27T07:53:20.937Z,0.30
2022-08-27T07:55:47.304Z,0.65
2022-08-27T07:58:18.447Z,0.70
2022-08-27T08:00:45.436Z,0.40
2022-08-27T08:03:12.448Z,0.25
2022-08-27T08:05:42.901Z,0.50
2022-08-27T08:08:09.448Z,0.50
2022-08-27T08:10:37.094Z,0.40
2022-08-27T08:13:03.630Z,0.30
2022-08-27T08:15:30.001Z,0.40
2022-08-27T08:17:56.540Z,0.40
2022-08-27T08:20:36.029Z,0.43
2022-08-27T08:23:09.862Z,0.50
2022-08-27T08:25:38.460Z,0.40
2022-08-27T08:28:05.211Z,0.40
2022-08-27T08:30:35.298Z,1.00
2022-08-27T08:33:01.966Z,0.57
2022-08-27T08:35:28.345Z,0.73
2022-08-27T08:38:01.523Z,0.40
2022-08-27T08:40:35.822Z,0.30
2022-08-27T08:43:03.918Z,0.50
2022-08-27T08:45:32.152Z,0.30
2022-08-27T08:48:04.938Z,0.60
2022-08-27T08:50:43.273Z,1.05
2022-08-27T08:53:11.686Z,0.77
2022-08-27T08:55:47.880Z,0.80
2022-08-27T08:58:23.411Z,0.60
2022-08-27T09:00:54.331Z,0.50
2022-08-27T09:03:20.792Z,0.80
2022-08-27T09:06:07.528Z,0.95
2022-08-27T09:08:41.101Z,0.85
2022-08-27T09:11:20.806Z,1.15
2022-08-27T09:13:58.533Z,1.23
2022-08-27T09:16:25.134Z,0.85
2022-08-27T09:18:52.577Z,1.00
2022-08-27T09:21:23.226Z,0.90
2022-08-27T09:24:03.902Z,0.70
2022-08-27T09:26:32.337Z,0.60
2022-08-27T09:29:18.260Z,0.70
2022-08-27T09:31:48.434Z,0.40
2022-08-27T09:34:15.170Z,0.70
2022-08-27T09:37:20.770Z,0.73
2022-08-27T09:39:50.102Z,0.70
2022-08-27T09:42:29.814Z,0.88
2022-08-27T09:44:56.789Z,0.73
2022-08-27T09:47:23.482Z,0.70
2022-08-27T09:50:00.200Z,0.95
2022-08-27T09:52:45.363Z,1.10
2022-08-27T09:55:11.862Z,1.13
2022-08-27T09:57:40.827Z,0.82
2022-08-27T10:00:13.888Z,0.60
2022-08-27T10:05:14.815Z,0.98
2022-08-27T10:07:53.614Z,1.00
2022-08-27T10:10:22.047Z,0.88
2022-08-27T10:12:59.302Z,0.80
2022-08-27T10:15:28.283Z,0.90
2022-08-27T10:18:12.200Z,0.73
2022-08-27T10:20:42.267Z,0.70
2022-08-27T10:23:08.590Z,0.55
2022-08-27T10:25:49.361Z,0.40
2022-08-27T10:28:27.693Z,0.55
2022-08-27T10:31:17.387Z,0.50
2022-08-27T10:33:51.729Z,0.50
2022-08-27T10:36:18.283Z,0.40
2022-08-27T10:38:50.143Z,0.47
2022-08-27T10:41:28.338Z,0.50
2022-08-27T10:44:00.842Z,0.40
2022-08-27T10:46:49.960Z,0.30
2022-08-27T10:49:23.142Z,0.22
2022-08-27T10:51:56.116Z,0.30
2022-08-27T10:54:27.766Z,0.30
2022-08-27T10:59:37.997Z,0.40
2022-08-27T11:02:23.206Z,0.40
2022-08-27T11:04:52.566Z,0.50
2022-08-27T11:07:22.732Z,0.30
2022-08-27T11:09:56.164Z,0.60
2022-08-27T11:12:28.195Z,0.70
2022-08-27T11:14:56.962Z,0.70
2022-08-27T11:17:32.439Z,0.47
2022-08-27T11:20:01.404Z,0.47
2022-08-27T11:22:37.468Z,0.55
2022-08-27T11:25:08.961Z,0.50
2022-08-27T11:27:36.042Z,0.70
2022-08-27T11:30:07.965Z,0.60
2022-08-27T11:32:43.084Z,0.40
2022-08-27T11:35:13.888Z,0.43
2022-08-27T11:37:58.934Z,0.67
2022-08-27T11:40:48.319Z,0.55
2022-08-27T11:43:17.506Z,0.70
2022-08-27T11:46:13.370Z,0.77
2022-08-27T11:48:41.570Z,0.60
2022-08-27T11:51:12.294Z,0.55
2022-08-27T11:53:54.312Z,0.50
2022-08-27T11:56:37.358Z,0.50
2022-08-27T11:59:21.600Z,0.47
2022-08-27T12:01:48.869Z,0.30
2022-08-27T12:04:30.358Z,0.70
2022-08-27T12:07:06.305Z,0.40
2022-08-27T12:09:51.272Z,0.43
2022-08-27T12:12:37.862Z,0.45
2022-08-27T12:15:04.647Z,0.57
2022-08-27T12:17:53.718Z,0.40
2022-08-27T12:20:38.965Z,0.43
2022-08-27T12:23:43.846Z,0.40
2022-08-27T12:26:18.666Z,0.70
2022-08-27T12:28:45.150Z,0.43
2022-08-27T12:31:11.542Z,0.50
2022-08-27T12:33:43.341Z,0.40
2022-08-27T12:36:27.513Z,0.60
2022-08-27T12:38:56.151Z,0.40
2022-08-27T12:41:26.613Z,0.40
2022-08-27T12:44:02.284Z,0.90
2022-08-27T12:46:29.793Z,0.80
2022-08-27T12:48:59.153Z,0.60
2022-08-27T12:51:38.101Z,0.55
2022-08-27T12:54:04.746Z,0.65
2022-08-27T12:56:42.547Z,1.23
2022-08-27T12:59:31.929Z,1.60
2022-08-27T13:02:15.664Z,0.90
2022-08-27T13:04:42.998Z,0.50
2022-08-27T13:07:09.753Z,0.60
2022-08-27T13:09:37.779Z,0.45
2022-08-27T13:12:05.908Z,0.68
2022-08-27T13:14:40.001Z,0.40
2022-08-27T13:17:11.322Z,0.60
2022-08-27T13:19:44.293Z,0.47
2022-08-27T13:22:10.645Z,0.50
2022-08-27T13:24:45.260Z,0.40
2022-08-27T13:27:11.682Z,0.50
2022-08-27T13:29:38.913Z,0.50
2022-08-27T13:32:05.633Z,0.57
2022-08-27T13:34:35.412Z,0.50
2022-08-27T13:37:04.002Z,0.32
2022-08-27T13:39:30.622Z,0.50
2022-08-27T13:41:59.187Z,0.40
2022-08-27T13:44:35.772Z,0.40
2022-08-27T13:47:05.004Z,0.57
2022-08-27T13:49:32.290Z,0.45
2022-08-27T13:52:00.706Z,0.40
2022-08-27T13:54:27.142Z,0.38
2022-08-27T13:56:55.019Z,0.50
2022-08-27T13:59:21.471Z,0.50
2022-08-27T14:02:02.170Z,0.43
2022-08-27T14:04:36.548Z,0.50
2022-08-27T14:07:15.629Z,0.55
2022-08-27T14:09:43.765Z,0.40
2022-08-27T14:12:10.750Z,0.50
2022-08-27T14:14:38.923Z,0.45
2022-08-27T14:17:08.820Z,0.60
2022-08-27T14:19:36.246Z,0.70
2022-08-27T14:22:03.314Z,0.60
2022-08-27T14:24:29.670Z,0.68
2022-08-27T14:27:02.661Z,0.60
2022-08-27T14:29:29.015Z,0.65
2022-08-27T14:31:55.409Z,0.73
2022-08-27T14:34:22.462Z,0.50
2022-08-27T14:36:52.894Z,0.60
2022-08-27T14:39:22.970Z,0.50
2022-08-27T14:41:53.026Z,0.45
2022-08-27T14:44:19.403Z,0.50
2022-08-27T14:46:45.894Z,0.60
2022-08-27T14:49:16.300Z,0.70
2022-08-27T14:51:44.339Z,0.70
2022-08-27T14:54:10.710Z,0.70
2022-08-27T14:56:37.034Z,0.70
2022-08-27T14:59:03.609Z,0.80
2022-08-27T15:01:30.017Z,0.95
2022-08-27T15:03:56.966Z,0.80
2022-08-27T15:06:23.874Z,0.90
2022-08-27T15:08:50.693Z,0.70
2022-08-27T15:11:19.058Z,0.90
2022-08-27T15:13:45.575Z,0.70
2022-08-27T15:16:16.790Z,0.82
2022-08-27T15:18:43.328Z,0.90
2022-08-27T15:21:20.514Z,0.60
2022-08-27T15:23:48.235Z,0.40
2022-08-27T15:26:14.588Z,0.50
2022-08-27T15:28:41.675Z,1.10
2022-08-27T15:31:08.055Z,1.10
2022-08-27T15:33:34.503Z,0.90
2022-08-27T15:36:03.947Z,0.90
2022-08-27T15:38:30.811Z,0.90
2022-08-27T15:40:57.136Z,0.70
2022-08-27T15:43:24.429Z,0.68
2022-08-27T15:45:50.785Z,0.80
2022-08-27T15:48:17.130Z,0.70
2022-08-27T15:50:43.487Z,0.60
2022-08-27T15:53:10.074Z,0.70
2022-08-27T15:55:38.384Z,0.80
2022-08-27T15:58:04.924Z,0.70
2022-08-27T16:00:33.648Z,0.63
2022-08-27T16:03:01.129Z,0.60
2022-08-27T16:05:30.580Z,0.90
2022-08-27T16:07:57.112Z,1.20
2022-08-27T16:10:23.452Z,0.90
2022-08-27T16:12:49.900Z,0.90
2022-08-27T16:15:17.299Z,0.80
2022-08-27T16:17:44.097Z,0.70
2022-08-27T16:20:11.422Z,0.80
2022-08-27T16:22:37.834Z,0.68
2022-08-27T16:25:05.067Z,0.60
2022-08-27T16:27:31.817Z,0.75
2022-08-27T16:29:58.140Z,0.50
2022-08-27T16:32:25.996Z,0.65
2022-08-27T16:34:54.025Z,0.80
2022-08-27T16:37:22.458Z,0.65
2022-08-27T16:39:48.801Z,0.80
2022-08-27T16:42:15.276Z,1.13
2022-08-27T16:44:42.268Z,0.70
2022-08-27T16:47:08.733Z,0.80
2022-08-27T16:49:53.754Z,1.20
2022-08-27T16:52:20.794Z,1.27
2022-08-27T16:54:47.393Z,0.60
2022-08-27T16:57:13.923Z,0.70
2022-08-27T16:59:40.236Z,0.90
2022-08-27T17:02:09.315Z,0.80
2022-08-27T17:04:41.819Z,0.90
2022-08-27T17:07:08.346Z,0.90
2022-08-27T17:09:36.301Z,1.08
2022-08-27T17:12:05.038Z,1.15
2022-08-27T17:14:33.300Z,0.90
2022-08-27T17:17:00.338Z,0.77
2022-08-27T17:19:26.659Z,0.90
2022-08-27T17:21:53.875Z,1.15
2022-08-27T17:24:20.371Z,0.70
2022-08-27T17:26:46.682Z,1.10
2022-08-27T17:29:13.030Z,1.15
2022-08-27T17:31:41.468Z,0.82
2022-08-27T17:34:12.054Z,0.95
2022-08-27T17:36:38.372Z,0.70
2022-08-27T17:39:04.792Z,0.90
2022-08-27T17:41:36.682Z,0.80
2022-08-27T17:44:05.148Z,0.50
2022-08-27T17:46:31.652Z,0.55
2022-08-27T17:48:58.138Z,0.70
2022-08-27T17:51:24.652Z,0.60
2022-08-27T17:53:59.764Z,0.70
2022-08-27T17:56:27.233Z,0.70
2022-08-27T17:58:53.948Z,0.70
2022-08-27T18:01:23.121Z,0.70
2022-08-27T18:03:55.226Z,1.10
2022-08-27T18:06:21.669Z,1.00
2022-08-27T18:08:48.083Z,1.08
2022-08-27T18:11:14.620Z,0.80
2022-08-27T18:13:40.937Z,0.70
2022-08-27T18:16:07.671Z,1.25
2022-08-27T18:18:35.054Z,0.93
2022-08-27T18:21:01.591Z,1.10
2022-08-27T18:23:27.938Z,0.70
2022-08-27T18:25:55.514Z,0.70
2022-08-27T18:28:22.260Z,1.23
2022-08-27T18:30:49.023Z,1.20
2022-08-27T18:33:15.528Z,1.00
2022-08-27T18:35:42.058Z,1.08
2022-08-27T18:38:08.422Z,0.82
2022-08-27T18:40:36.771Z,0.70
2022-08-27T18:43:04.168Z,0.98
2022-08-27T18:45:30.625Z,1.00
2022-08-27T18:47:58.159Z,0.90
2022-08-27T18:50:24.976Z,0.70
2022-08-27T18:52:52.133Z,0.90
2022-08-27T18:55:20.976Z,1.20
2022-08-27T18:57:47.813Z,0.80
2022-08-27T19:00:15.026Z,0.80
2022-08-27T19:02:42.572Z,0.75
2022-08-27T19:05:10.073Z,0.70
2022-08-27T19:07:36.417Z,0.70
2022-08-27T19:10:04.828Z,0.93
2022-08-27T19:12:31.278Z,0.70
2022-08-27T19:14:58.921Z,0.57
2022-08-27T19:17:30.586Z,0.60
2022-08-27T19:19:57.318Z,1.33
2022-08-27T19:22:23.646Z,0.55
2022-08-27T19:24:51.206Z,0.50
2022-08-27T19:27:21.902Z,0.70
2022-08-27T19:29:51.558Z,0.82
2022-08-27T19:32:18.669Z,0.65
2022-08-27T19:34:45.105Z,0.88
2022-08-27T19:37:14.565Z,0.80
2022-08-27T19:39:40.924Z,0.80
2022-08-27T19:42:07.432Z,0.70
2022-08-27T19:44:33.771Z,0.90
2022-08-27T19:47:00.440Z,0.68
2022-08-27T19:49:26.888Z,0.80
2022-08-27T19:51:53.204Z,0.60
2022-08-27T19:54:19.885Z,0.60
2022-08-27T19:56:46.223Z,0.60
2022-08-27T19:59:21.412Z,0.68
2022-08-27T20:01:48.558Z,0.60
2022-08-27T20:04:14.983Z,0.52
2022-08-27T20:06:41.564Z,0.47
2022-08-27T20:09:11.126Z,0.60
2022-08-27T20:11:37.470Z,0.30
2022-08-27T20:14:03.848Z,0.40
2022-08-27T20:16:30.352Z,0.45
2022-08-27T20:19:00.260Z,0.50
2022-08-27T20:21:27.259Z,0.30
2022-08-27T20:23:53.913Z,0.40
2022-08-27T20:26:21.657Z,0.50
2022-08-27T20:28:48.075Z,0.30
2022-08-27T20:31:14.861Z,0.20
2022-08-27T20:33:41.494Z,0.40
2022-08-27T20:36:08.584Z,0.30
2022-08-27T20:38:35.486Z,0.30
2022-08-27T20:41:02.751Z,0.40
2022-08-27T20:43:29.956Z,0.50
2022-08-27T20:45:56.711Z,0.50
2022-08-27T20:48:23.099Z,0.40
2022-08-27T20:50:49.520Z,0.32
2022-08-27T20:53:16.279Z,0.43
2022-08-27T20:55:42.588Z,0.22
2022-08-27T20:58:27.543Z,0.30
2022-08-27T21:00:54.634Z,0.30
2022-08-27T21:03:21.368Z,0.35
2022-08-27T21:05:48.633Z,0.30
2022-08-27T21:08:19.198Z,0.50
2022-08-27T21:10:46.786Z,0.30
2022-08-27T21:13:14.127Z,0.25
2022-08-27T21:15:40.480Z,0.28
2022-08-27T21:18:06.851Z,0.20
2022-08-27T21:20:33.689Z,0.30
2022-08-27T21:23:00.390Z,0.20
2022-08-27T21:25:27.329Z,0.22
2022-08-27T21:27:54.368Z,0.30
2022-08-27T21:30:25.461Z,0.30
2022-08-27T21:32:55.714Z,0.30
2022-08-27T21:35:23.423Z,0.20
2022-08-27T21:37:50.196Z,0.20
2022-08-27T21:40:16.833Z,0.20
2022-08-27T21:42:43.201Z,0.25
2022-08-27T21:45:09.925Z,0.30
2022-08-27T21:47:36.823Z,0.13
2022-08-27T21:50:05.025Z,0.30
2022-08-27T21:52:31.446Z,0.35
2022-08-27T21:54:57.842Z,0.22
2022-08-27T21:57:24.183Z,0.30
2022-08-27T21:59:50.876Z,0.50
2022-08-27T22:02:38.614Z,0.30
2022-08-27T22:05:05.518Z,0.30
2022-08-27T22:07:31.945Z,0.30
2022-08-27T22:09:58.321Z,0.32
2022-08-27T22:12:25.377Z,0.40
2022-08-27T22:14:51.837Z,0.30
2022-08-27T22:17:18.161Z,0.40
2022-08-27T22:19:44.481Z,0.47
2022-08-27T22:22:10.838Z,0.35
2022-08-27T22:24:37.235Z,0.60
2022-08-27T22:27:03.697Z,0.50
2022-08-27T22:29:30.665Z,0.40
2022-08-27T22:31:57.128Z,0.40
2022-08-27T22:34:23.472Z,0.30
2022-08-27T22:36:49.907Z,0.60
2022-08-27T22:39:16.330Z,0.50
2022-08-27T22:41:44.360Z,0.45
2022-08-27T22:46:41.347Z,0.52
2022-08-27T22:49:07.716Z,0.63
2022-08-27T22:51:34.098Z,0.63
2022-08-27T22:54:00.442Z,0.60
2022-08-27T22:56:26.797Z,0.35
2022-08-27T22:58:53.258Z,0.30
2022-08-27T23:01:20.554Z,0.40
2022-08-27T23:03:47.052Z,0.40
2022-08-27T23:06:13.578Z,0.40
2022-08-27T23:08:40.249Z,0.40
2022-08-27T23:11:06.608Z,0.38
2022-08-27T23:13:33.443Z,0.30
2022-08-27T23:16:00.337Z,0.30
2022-08-27T23:18:26.786Z,0.30
2022-08-27T23:20:53.256Z,0.30
2022-08-27T23:23:20.155Z,0.40
2022-08-27T23:26:05.378Z,0.30
2022-08-27T23:28:31.786Z,0.30
2022-08-27T23:30:58.712Z,0.30
2022-08-27T23:33:25.251Z,0.30
2022-08-27T23:35:51.861Z,0.20
2022-08-27T23:38:19.189Z,0.20
2022-08-27T23:40:46.493Z,0.20
2022-08-27T23:43:12.859Z,0.20
2022-08-27T23:45:40.530Z,0.20
2022-08-27T23:48:07.161Z,0.20
2022-08-27T23:50:34.387Z,0.10
2022-08-27T23:53:01.727Z,0.20
2022-08-27T23:55:28.243Z,0.43
2022-08-27T23:57:57.521Z,0.50
